Time;durP1;ratioP1;P1;durP2;ratioP2;P2;SDS_P1;SDS_P2;PMS_P1;PMS_P2;Temp;Humidity;BMP_temperature;BMP_pressure;BME280_temperature;BME280_humidity;BME280_pressure;Samples;Min_cycle;Max_cycle;Signal;HPM_P1;HPM_P2
2023/03/24 00:02:17;;;;;;;6.07;2.20;;;14.10;79.10;;;;;;5090764;28;20032;-64
2023/03/24 00:04:46;;;;;;;6.82;2.47;;;14.10;79.20;;;;;;5092926;28;20032;-63
2023/03/24 00:07:14;;;;;;;6.20;2.25;;;14.10;79.20;;;;;;5103950;28;20039;-64
2023/03/24 00:09:41;;;;;;;6.72;2.42;;;14.10;79.30;;;;;;5093983;28;20024;-64
2023/03/24 00:12:12;;;;;;;6.40;2.10;;;14.00;79.30;;;;;;5100150;28;20016;-64
2023/03/24 00:14:39;;;;;;;;;;;14.10;79.40;;;;;;5103341;28;20102;-64
2023/03/24 00:17:08;;;;;;;5.72;2.10;;;14.10;79.30;;;;;;5089834;28;19908;-64
2023/03/24 00:19:37;;;;;;;6.47;1.98;;;14.00;79.40;;;;;;5094518;28;20095;-64
2023/03/24 00:22:07;;;;;;;5.88;2.15;;;14.00;79.50;;;;;;5092815;28;20067;-64
2023/03/24 00:24:33;;;;;;;5.35;2.03;;;14.00;79.60;;;;;;5096587;28;20467;-64
2023/03/24 00:27:00;;;;;;;5.05;1.83;;;14.00;79.70;;;;;;5093418;28;20123;-64
2023/03/24 00:29:26;;;;;;;5.93;2.20;;;14.00;79.70;;;;;;5085540;28;20408;-64
2023/03/24 00:31:52;;;;;;;6.45;2.30;;;14.00;79.80;;;;;;5104279;28;20043;-64
2023/03/24 00:34:22;;;;;;;7.05;2.63;;;14.00;80.00;;;;;;5100538;28;20468;-64
2023/03/24 00:36:50;;;;;;;6.20;2.13;;;14.00;80.10;;;;;;5097397;28;20084;-64
2023/03/24 00:39:17;;;;;;;6.03;2.70;;;14.00;80.20;;;;;;5096651;28;20040;-64
2023/03/24 00:41:44;;;;;;;7.70;2.50;;;14.00;80.30;;;;;;5097904;28;20108;-64
2023/03/24 00:44:16;;;;;;;6.63;2.75;;;14.00;80.30;;;;;;5099319;28;20074;-64
2023/03/24 00:46:58;;;;;;;6.20;2.30;;;14.00;80.40;;;;;;5096589;28;20326;-64
2023/03/24 00:49:43;;;;;;;6.40;1.90;;;14.00;80.50;;;;;;5097469;28;20016;-64
2023/03/24 00:52:12;;;;;;;6.20;2.40;;;13.90;80.50;;;;;;5096224;28;20391;-64
2023/03/24 00:54:39;;;;;;;5.43;2.13;;;13.90;80.60;;;;;;5097847;28;20091;-63
2023/03/24 00:57:11;;;;;;;7.78;2.28;;;13.90;80.60;;;;;;5095996;28;20016;-63
2023/03/24 00:59:41;;;;;;;5.78;2.35;;;14.00;80.70;;;;;;5095234;28;20055;-64
2023/03/24 01:02:11;;;;;;;6.18;2.45;;;14.00;80.70;;;;;;5094845;28;20031;-64
2023/03/24 01:04:38;;;;;;;5.72;2.45;;;14.00;80.70;;;;;;5105221;28;20016;-64
2023/03/24 01:07:06;;;;;;;7.65;2.40;;;14.00;80.70;;;;;;5096722;28;20031;-63
2023/03/24 01:09:35;;;;;;;6.22;2.55;;;14.00;80.80;;;;;;5096640;28;20031;-64
2023/03/24 01:12:03;;;;;;;11.20;3.17;;;14.00;80.80;;;;;;5094979;28;20218;-64
2023/03/24 01:14:30;;;;;;;7.57;2.40;;;14.00;80.90;;;;;;5097369;28;20019;-63
2023/03/24 01:16:56;;;;;;;5.88;2.58;;;14.00;80.90;;;;;;5094892;28;20024;-63
2023/03/24 01:19:24;;;;;;;5.40;2.05;;;14.00;81.00;;;;;;5088197;28;20026;-63
2023/03/24 01:21:53;;;;;;;6.22;2.72;;;14.00;81.00;;;;;;5097914;28;20123;-64
2023/03/24 01:24:20;;;;;;;4.68;2.08;;;14.00;81.10;;;;;;5101000;28;20016;-64
2023/03/24 01:26:46;;;;;;;6.30;2.50;;;14.00;81.10;;;;;;5104498;28;20112;-64
2023/03/24 01:29:12;;;;;;;6.15;2.35;;;14.00;81.10;;;;;;5095088;28;20023;-63
2023/03/24 01:31:38;;;;;;;5.78;2.53;;;14.00;81.10;;;;;;5106016;28;20422;-64
2023/03/24 01:34:04;;;;;;;4.38;2.00;;;14.00;81.10;;;;;;5098582;28;20440;-63
2023/03/24 01:36:30;;;;;;;6.20;2.08;;;14.00;81.10;;;;;;5107446;28;20028;-64
2023/03/24 01:38:59;;;;;;;7.68;2.67;;;14.00;81.80;;;;;;5094619;28;20126;-64
2023/03/24 01:41:29;;;;;;;5.30;2.22;;;14.10;81.20;;;;;;5107128;28;20035;-63
2023/03/24 01:43:55;;;;;;;5.88;2.50;;;14.10;81.20;;;;;;5092189;28;20124;-63
2023/03/24 01:46:22;;;;;;;5.78;2.50;;;14.10;81.30;;;;;;5104342;28;20020;-63
2023/03/24 01:49:00;;;;;;;5.78;2.40;;;14.10;81.30;;;;;;5095819;28;20365;-63
2023/03/24 01:51:30;;;;;;;8.55;2.90;;;14.10;81.40;;;;;;5106308;28;21230;-63
2023/03/24 01:54:05;;;;;;;7.53;2.45;;;14.00;81.50;;;;;;5100364;28;20410;-63
2023/03/24 01:56:36;;;;;;;7.20;2.72;;;14.10;81.60;;;;;;5100510;28;20032;-63
2023/03/24 01:59:11;;;;;;;5.65;2.47;;;14.10;81.60;;;;;;5094630;28;20032;-63
2023/03/24 02:02:02;;;;;;;7.68;2.65;;;14.10;81.60;;;;;;5081720;28;20028;-63
2023/03/24 02:04:57;;;;;;;6.32;2.17;;;14.10;81.50;;;;;;5081066;28;20024;-63
2023/03/24 02:07:41;;;;;;;5.47;2.17;;;14.10;81.60;;;;;;5101355;28;20081;-63
2023/03/24 02:10:14;;;;;;;5.07;1.97;;;14.10;81.60;;;;;;5108310;28;20031;-63
2023/03/24 02:12:42;;;;;;;5.68;2.05;;;14.10;81.70;;;;;;5101363;28;20032;-63
2023/03/24 02:15:09;;;;;;;4.82;2.05;;;14.10;81.80;;;;;;5095687;28;20038;-63
2023/03/24 02:17:36;;;;;;;4.57;1.95;;;14.10;81.80;;;;;;5097822;28;20034;-63
2023/03/24 02:20:13;;;;;;;6.25;2.33;;;14.10;81.90;;;;;;5096548;28;20052;-63
2023/03/24 02:23:04;;;;;;;5.25;2.17;;;14.10;82.00;;;;;;5093574;28;20089;-64
2023/03/24 02:25:47;;;;;;;7.13;2.75;;;14.10;82.00;;;;;;5109599;27;20035;-64
2023/03/24 02:28:15;;;;;;;5.57;2.38;;;14.10;82.00;;;;;;5083590;28;20385;-63
2023/03/24 02:30:47;;;;;;;6.32;2.67;;;14.10;82.00;;;;;;5100762;28;20116;-64
2023/03/24 02:33:31;;;;;;;5.18;2.13;;;14.10;82.10;;;;;;5095755;28;20452;-63
2023/03/24 02:36:18;;;;;;;5.60;2.20;;;14.10;82.20;;;;;;5099970;28;20391;-64
2023/03/24 02:39:02;;;;;;;5.13;2.25;;;14.10;82.20;;;;;;5096247;28;20048;-64
2023/03/24 02:41:36;;;;;;;4.15;2.13;;;14.10;82.20;;;;;;5092620;28;20413;-64
2023/03/24 02:44:05;;;;;;;5.07;1.90;;;14.10;82.40;;;;;;5092399;28;20081;-64
2023/03/24 02:46:45;;;;;;;6.50;2.28;;;14.10;82.40;;;;;;5094651;28;20031;-63
2023/03/24 02:49:20;;;;;;;3.90;1.85;;;14.10;82.50;;;;;;5087761;28;20016;-64
2023/03/24 02:52:16;;;;;;;5.53;2.25;;;14.10;82.50;;;;;;5098422;28;20030;-64
2023/03/24 02:54:53;;;;;;;6.18;2.35;;;14.10;82.60;;;;;;5091092;28;20453;-64
2023/03/24 02:57:22;;;;;;;5.43;2.22;;;14.10;82.60;;;;;;5098521;28;20082;-64
2023/03/24 03:00:25;;;;;;;4.05;2.03;;;14.10;82.70;;;;;;5094603;28;20032;-63
2023/03/24 03:03:20;;;;;;;6.13;2.22;;;14.10;82.70;;;;;;5094160;28;20032;-63
2023/03/24 03:05:53;;;;;;;;;;;14.10;82.80;;;;;;5099908;28;20106;-64
2023/03/24 03:08:21;;;;;;;6.22;2.08;;;14.10;82.70;;;;;;5094026;28;19970;-63
2023/03/24 03:10:50;;;;;;;4.97;2.20;;;14.10;82.70;;;;;;5094173;28;20020;-64
2023/03/24 03:13:29;;;;;;;5.68;2.30;;;14.10;82.90;;;;;;5102009;28;20174;-64
2023/03/24 03:16:01;;;;;;;8.68;2.80;;;14.10;83.00;;;;;;5106253;28;20023;-63
2023/03/24 03:18:50;;;;;;;5.97;2.45;;;14.10;83.10;;;;;;5096165;28;20123;-64
2023/03/24 03:21:22;;;;;;;4.30;2.05;;;14.10;83.20;;;;;;5084812;28;20024;-63
2023/03/24 03:23:57;;;;;;;4.65;2.00;;;14.10;83.20;;;;;;5097220;28;20098;-63
2023/03/24 03:26:27;;;;;;;3.08;1.50;;;14.00;83.00;;;;;;5106574;28;20432;-64
2023/03/24 03:28:58;;;;;;;2.40;1.15;;;14.00;82.80;;;;;;5096918;28;20043;-63
2023/03/24 03:31:34;;;;;;;4.43;1.27;;;14.00;82.60;;;;;;5098393;28;20024;-63
2023/03/24 03:34:18;;;;;;;3.00;1.30;;;14.00;82.30;;;;;;5098292;28;20028;-63
2023/03/24 03:36:54;;;;;;;3.05;1.15;;;13.90;82.30;;;;;;5099644;28;20023;-64
2023/03/24 03:39:28;;;;;;;2.45;1.08;;;13.90;81.90;;;;;;5071818;28;20038;-64
2023/03/24 03:41:57;;;;;;;2.97;1.02;;;13.90;81.70;;;;;;5099217;28;20153;-64
2023/03/24 03:44:24;;;;;;;2.50;1.10;;;13.80;81.50;;;;;;5086582;28;20090;-64
2023/03/24 03:46:51;;;;;;;2.75;1.13;;;13.80;81.40;;;;;;5097380;28;20397;-64
2023/03/24 03:49:24;;;;;;;5.90;1.77;;;13.80;81.20;;;;;;5094811;28;20448;-64
2023/03/24 03:51:51;;;;;;;5.80;1.55;;;13.80;81.10;;;;;;5088790;28;20070;-63
2023/03/24 03:54:18;;;;;;;3.33;1.48;;;13.80;80.90;;;;;;5098882;28;20023;-64
2023/03/24 03:56:47;;;;;;;3.65;1.10;;;13.70;80.70;;;;;;5095223;28;20023;-63
2023/03/24 03:59:35;;;;;;;2.53;0.98;;;13.60;80.50;;;;;;5094289;28;20089;-63
2023/03/24 04:02:08;;;;;;;3.50;1.17;;;13.60;80.40;;;;;;5093038;28;20406;-63
2023/03/24 04:04:55;;;;;;;3.30;1.00;;;13.60;80.40;;;;;;5099547;28;20028;-63
2023/03/24 04:07:46;;;;;;;3.85;1.35;;;13.60;80.40;;;;;;5092647;28;20074;-64
2023/03/24 04:10:38;;;;;;;2.60;0.87;;;13.60;80.30;;;;;;5096395;28;20113;-64
2023/03/24 04:13:33;;;;;;;4.15;1.40;;;13.50;80.10;;;;;;5088772;28;20031;-63
2023/03/24 04:16:17;;;;;;;2.80;1.02;;;13.50;79.80;;;;;;5084114;28;20035;-64
2023/03/24 04:19:15;;;;;;;4.78;1.10;;;13.40;79.90;;;;;;5093228;28;20032;-64
2023/03/24 04:22:05;;;;;;;2.70;1.10;;;13.50;79.80;;;;;;5110672;28;20452;-63
2023/03/24 04:24:43;;;;;;;;;;;13.40;79.60;;;;;;5079254;28;20397;-64
2023/03/24 04:27:29;;;;;;;4.13;1.02;;;13.40;79.80;;;;;;5097933;28;19951;-64
2023/03/24 04:30:08;;;;;;;4.85;1.20;;;13.30;79.60;;;;;;5091912;28;20085;-64
2023/03/24 04:32:45;;;;;;;5.78;1.60;;;13.30;79.40;;;;;;5094974;28;20331;-63
2023/03/24 04:35:32;;;;;;;6.88;1.38;;;13.30;79.40;;;;;;5086594;28;20475;-64
2023/03/24 04:38:26;;;;;;;5.47;1.38;;;13.20;79.20;;;;;;5092649;28;20093;-63
2023/03/24 04:41:11;;;;;;;6.05;1.60;;;13.20;79.20;;;;;;5093637;28;20047;-64
2023/03/24 04:43:38;;;;;;;7.13;1.95;;;13.20;79.20;;;;;;5093165;28;20031;-64
2023/03/24 04:46:08;;;;;;;7.63;1.58;;;13.10;79.10;;;;;;5092670;28;20020;-63
2023/03/24 04:48:50;;;;;;;8.60;1.90;;;13.10;79.10;;;;;;5093314;28;20023;-63
2023/03/24 04:51:23;;;;;;;8.63;2.10;;;13.10;78.90;;;;;;5092384;28;20024;-63
2023/03/24 04:54:10;;;;;;;6.25;1.83;;;13.10;78.80;;;;;;5100037;28;20032;-63
2023/03/24 04:56:46;;;;;;;;;;;13.10;78.80;;;;;;5093325;28;20020;-64
2023/03/24 04:59:20;;;;;;;8.68;2.00;;;13.10;78.90;;;;;;5094459;28;19912;-64
2023/03/24 05:01:49;;;;;;;8.43;2.00;;;13.00;78.50;;;;;;5086131;28;20020;-64
2023/03/24 05:04:30;;;;;;;11.32;2.28;;;13.00;78.40;;;;;;5078624;28;20042;-64
2023/03/24 05:07:06;;;;;;;6.50;1.52;;;12.90;78.40;;;;;;5078869;28;20032;-64
2023/03/24 05:09:32;;;;;;;9.43;2.42;;;13.00;78.40;;;;;;5079442;28;20039;-64
2023/03/24 05:11:59;;;;;;;8.73;2.28;;;13.00;78.30;;;;;;5080756;28;20021;-64
2023/03/24 05:14:25;;;;;;;9.55;2.25;;;13.00;78.10;;;;;;5094118;28;20020;-64
2023/03/24 05:16:51;;;;;;;10.02;2.10;;;13.00;78.00;;;;;;5093534;28;20052;-63
2023/03/24 05:19:19;;;;;;;10.13;2.13;;;13.00;77.80;;;;;;5119480;27;20028;-63
2023/03/24 05:21:46;;;;;;;9.00;2.08;;;13.00;77.80;;;;;;5086112;28;20025;-63
2023/03/24 05:24:12;;;;;;;8.73;2.25;;;13.00;77.70;;;;;;5093705;28;20059;-64
2023/03/24 05:26:38;;;;;;;13.30;2.72;;;13.00;78.20;;;;;;5082167;28;20023;-63
2023/03/24 05:29:11;;;;;;;8.98;2.10;;;13.00;77.40;;;;;;5098665;28;20043;-64
2023/03/24 05:31:38;;;;;;;9.00;2.20;;;13.00;77.30;;;;;;5092246;28;20040;-63
2023/03/24 05:34:09;;;;;;;8.63;2.35;;;12.90;77.10;;;;;;5085361;28;20032;-63
2023/03/24 05:36:50;;;;;;;11.35;2.58;;;12.90;77.10;;;;;;5094433;28;20085;-63
2023/03/24 05:39:19;;;;;;;9.65;2.15;;;12.90;77.10;;;;;;5090709;28;20111;-64
2023/03/24 05:41:54;;;;;;;9.20;2.63;;;12.90;77.00;;;;;;5093156;28;20020;-63
2023/03/24 05:44:20;;;;;;;8.45;2.30;;;12.90;77.00;;;;;;5095713;28;20452;-63
2023/03/24 05:46:59;;;;;;;11.25;2.78;;;12.80;76.90;;;;;;5100845;28;20020;-63
2023/03/24 05:49:26;;;;;;;12.90;3.50;;;12.80;77.00;;;;;;5093021;28;20498;-63
2023/03/24 05:51:52;;;;;;;10.77;3.10;;;12.80;76.90;;;;;;5102097;28;20091;-64
2023/03/24 05:54:18;;;;;;;8.18;2.65;;;12.80;76.80;;;;;;5095492;28;20524;-63
2023/03/24 05:56:47;;;;;;;7.82;2.40;;;12.80;76.80;;;;;;5091486;28;20024;-63
2023/03/24 05:59:15;;;;;;;14.50;3.28;;;12.80;76.80;;;;;;5099782;28;20035;-63
2023/03/24 06:01:57;;;;;;;9.95;2.75;;;12.80;76.70;;;;;;5089106;28;20093;-62
2023/03/24 06:04:36;;;;;;;11.60;2.97;;;12.80;76.70;;;;;;5091601;28;20119;-62
2023/03/24 06:07:10;;;;;;;9.80;2.88;;;12.80;76.60;;;;;;5061805;28;20272;-63
2023/03/24 06:09:41;;;;;;;9.88;2.97;;;12.90;76.50;;;;;;5099687;28;20020;-63
2023/03/24 06:12:10;;;;;;;9.13;2.70;;;12.90;76.40;;;;;;5096913;28;20016;-62
2023/03/24 06:14:41;;;;;;;11.63;2.88;;;12.90;76.20;;;;;;5094573;28;20043;-62
2023/03/24 06:17:13;;;;;;;10.98;2.90;;;12.90;76.10;;;;;;5100131;28;20028;-63
2023/03/24 06:19:48;;;;;;;12.98;3.65;;;12.90;76.00;;;;;;5098129;28;20023;-61
2023/03/24 06:22:32;;;;;;;9.52;3.25;;;13.00;76.00;;;;;;5096803;28;20042;-62
2023/03/24 06:25:01;;;;;;;10.30;3.05;;;13.00;75.80;;;;;;5092978;28;20464;-62
2023/03/24 06:27:28;;;;;;;11.82;3.20;;;13.00;75.70;;;;;;5099331;28;20058;-62
2023/03/24 06:29:58;;;;;;;10.80;3.25;;;13.00;75.60;;;;;;5082416;28;20028;-62
2023/03/24 06:32:25;;;;;;;9.55;3.15;;;13.00;75.50;;;;;;5107793;27;20067;-63
2023/03/24 06:34:51;;;;;;;10.02;2.90;;;13.00;75.40;;;;;;5088281;28;20050;-62
2023/03/24 06:37:40;;;;;;;9.35;2.65;;;13.00;75.40;;;;;;5090009;28;20064;-62
2023/03/24 06:40:12;;;;;;;9.45;2.90;;;13.00;75.40;;;;;;5093647;28;20514;-62
2023/03/24 06:42:44;;;;;;;9.07;2.92;;;13.00;75.40;;;;;;5099551;28;20027;-62
2023/03/24 06:45:10;;;;;;;11.13;2.60;;;13.00;75.30;;;;;;5094329;28;20031;-62
2023/03/24 06:47:36;;;;;;;10.85;2.97;;;13.00;75.20;;;;;;5093798;28;20063;-62
2023/03/24 06:50:03;;;;;;;13.55;3.38;;;13.00;75.20;;;;;;5093722;28;20020;-62
2023/03/24 06:52:29;;;;;;;9.43;3.22;;;13.00;75.20;;;;;;5079095;28;20430;-62
2023/03/24 06:54:56;;;;;;;8.18;2.90;;;13.00;75.70;;;;;;5093820;28;20032;-62
2023/03/24 06:57:22;;;;;;;7.60;2.42;;;13.00;75.00;;;;;;5094777;28;20073;-63
2023/03/24 07:00:24;;;;;;;10.60;3.05;;;13.00;75.00;;;;;;5078477;28;20040;-62
2023/03/24 07:03:04;;;;;;;12.30;3.05;;;13.10;75.00;;;;;;5092462;28;20055;-63
2023/03/24 07:05:31;;;;;;;8.15;2.70;;;13.10;74.80;;;;;;5085786;28;20028;-62
2023/03/24 07:07:56;;;;;;;9.23;2.92;;;13.10;74.80;;;;;;5098176;28;20468;-63
2023/03/24 07:10:36;;;;;;;9.68;2.72;;;13.10;74.70;;;;;;5094852;28;20599;-63
2023/03/24 07:13:02;;;;;;;8.73;2.90;;;13.10;74.60;;;;;;5092681;28;20044;-65
2023/03/24 07:15:29;;;;;;;9.40;2.47;;;13.10;74.50;;;;;;5103263;28;20036;-63
2023/03/24 07:17:56;;;;;;;11.73;2.90;;;13.10;74.40;;;;;;5101401;28;20024;-63
2023/03/24 07:20:48;;;;;;;9.30;2.70;;;13.20;74.40;;;;;;5092421;28;20035;-63
2023/03/24 07:23:16;;;;;;;11.13;2.60;;;13.20;74.30;;;;;;5085669;28;20028;-63
2023/03/24 07:26:11;;;;;;;8.38;2.60;;;13.30;74.20;;;;;;5088974;28;20071;-62
2023/03/24 07:28:46;;;;;;;10.73;2.70;;;13.30;74.10;;;;;;5087116;28;20074;-63
2023/03/24 07:31:19;;;;;;;8.55;3.30;;;13.40;73.90;;;;;;5093599;28;20045;-63
2023/03/24 07:33:47;;;;;;;10.80;3.20;;;13.50;73.70;;;;;;5098299;27;20023;-62
2023/03/24 07:36:13;;;;;;;12.43;3.30;;;13.60;73.60;;;;;;5074585;28;20034;-63
2023/03/24 07:38:39;;;;;;;9.45;2.53;;;13.60;74.00;;;;;;5093149;28;20063;-63
2023/03/24 07:41:09;;;;;;;9.70;2.63;;;13.70;73.20;;;;;;5080763;28;20510;-63
2023/03/24 07:43:40;;;;;;;10.10;2.80;;;13.70;72.90;;;;;;5082516;28;20028;-63
2023/03/24 07:46:17;;;;;;;9.65;3.15;;;13.80;72.80;;;;;;5078271;28;20454;-62
2023/03/24 07:48:42;;;;;;;12.73;2.70;;;13.80;72.60;;;;;;5074328;28;20016;-62
2023/03/24 07:51:08;;;;;;;7.88;2.80;;;13.90;72.60;;;;;;5074838;28;20021;-62
2023/03/24 07:54:00;;;;;;;13.48;3.10;;;13.90;72.40;;;;;;5075922;28;20028;-62
2023/03/24 07:56:34;;;;;;;10.43;3.45;;;13.90;72.40;;;;;;5072162;28;20038;-63
2023/03/24 07:59:00;;;;;;;9.30;2.80;;;14.00;72.30;;;;;;5094221;28;20024;-63
2023/03/24 08:01:45;;;;;;;8.98;2.50;;;14.20;72.00;;;;;;5091534;28;20039;-63
2023/03/24 08:04:12;;;;;;;9.65;2.47;;;14.50;71.40;;;;;;5090087;28;20393;-63
2023/03/24 08:06:53;;;;;;;;;;;14.70;70.70;;;;;;5088797;28;20081;-62
2023/03/24 08:09:19;;;;;;;9.88;2.63;;;15.10;70.30;;;;;;5090365;28;19911;-63
2023/03/24 08:11:45;;;;;;;8.52;2.50;;;15.40;69.60;;;;;;5097329;28;20114;-63
2023/03/24 08:14:11;;;;;;;7.38;2.25;;;15.60;69.00;;;;;;5092004;28;20028;-63
2023/03/24 08:16:40;;;;;;;8.73;2.00;;;15.60;68.70;;;;;;5089402;28;20035;-63
2023/03/24 08:19:06;;;;;;;8.05;2.00;;;15.90;68.50;;;;;;5091821;28;20092;-63
2023/03/24 08:21:32;;;;;;;8.73;2.30;;;16.10;67.90;;;;;;5090296;28;20016;-63
2023/03/24 08:23:58;;;;;;;10.00;2.90;;;16.10;67.70;;;;;;5091795;28;20326;-63
2023/03/24 08:26:25;;;;;;;9.60;2.42;;;16.20;67.60;;;;;;5090501;28;20027;-63
2023/03/24 08:28:52;;;;;;;9.82;2.75;;;16.20;67.20;;;;;;5086456;28;20059;-62
2023/03/24 08:31:17;;;;;;;12.95;2.85;;;16.20;67.20;;;;;;5086481;28;20410;-63
2023/03/24 08:33:43;;;;;;;11.20;2.75;;;16.10;67.40;;;;;;5091396;28;20020;-64
2023/03/24 08:36:09;;;;;;;6.22;2.13;;;15.90;67.30;;;;;;5091429;28;20036;-63
2023/03/24 08:38:37;;;;;;;8.40;2.60;;;15.90;67.50;;;;;;5089858;28;20031;-63
2023/03/24 08:41:05;;;;;;;10.25;2.67;;;15.90;67.00;;;;;;5091986;28;20357;-63
2023/03/24 08:43:38;;;;;;;10.07;2.72;;;15.80;66.90;;;;;;5090893;28;20138;-63
2023/03/24 08:46:06;;;;;;;12.57;2.72;;;15.80;66.90;;;;;;5090937;28;20412;-63
2023/03/24 08:48:33;;;;;;;8.43;2.55;;;15.70;66.50;;;;;;5097362;28;20150;-63
2023/03/24 08:50:59;;;;;;;12.25;2.55;;;15.60;66.80;;;;;;5090152;28;20020;-63
2023/03/24 08:53:25;;;;;;;10.50;2.38;;;15.60;66.80;;;;;;5092253;28;20027;-64
2023/03/24 08:55:51;;;;;;;11.18;2.80;;;15.60;66.80;;;;;;5095547;28;20149;-64
2023/03/24 08:58:20;;;;;;;9.57;2.85;;;15.60;66.60;;;;;;5096094;28;20028;-63
2023/03/24 09:00:47;;;;;;;12.40;3.08;;;15.60;66.30;;;;;;5093701;28;20106;-64
2023/03/24 09:03:20;;;;;;;9.73;2.75;;;15.70;66.40;;;;;;5094589;28;20446;-63
2023/03/24 09:05:47;;;;;;;8.48;2.63;;;15.90;66.00;;;;;;5093692;28;20024;-65
2023/03/24 09:08:15;;;;;;;10.65;2.80;;;16.10;65.50;;;;;;5095191;28;20452;-63
2023/03/24 09:10:42;;;;;;;9.40;3.03;;;16.20;65.10;;;;;;5093510;28;20024;-63
2023/03/24 09:13:08;;;;;;;8.02;2.10;;;16.50;64.70;;;;;;5093300;28;20309;-64
2023/03/24 09:15:34;;;;;;;14.95;2.78;;;16.60;64.30;;;;;;5095230;28;20086;-64
2023/03/24 09:18:01;;;;;;;9.43;3.05;;;16.70;63.80;;;;;;5095186;28;20043;-64
2023/03/24 09:20:27;;;;;;;7.63;2.60;;;16.80;63.50;;;;;;5090181;28;20031;-63
2023/03/24 09:22:54;;;;;;;11.45;2.63;;;16.80;63.30;;;;;;5092228;28;20111;-66
2023/03/24 09:25:21;;;;;;;11.25;2.30;;;16.60;63.30;;;;;;5091294;28;20036;-63
2023/03/24 09:27:47;;;;;;;11.82;2.97;;;16.50;63.30;;;;;;5095533;28;20040;-63
2023/03/24 09:30:15;;;;;;;9.25;2.30;;;16.50;63.10;;;;;;5086486;28;20041;-63
2023/03/24 09:32:42;;;;;;;10.50;2.38;;;16.40;62.90;;;;;;5098959;28;20051;-63
2023/03/24 09:35:08;;;;;;;7.70;1.98;;;16.30;62.90;;;;;;5094678;28;20070;-62
2023/03/24 09:37:36;;;;;;;8.98;2.03;;;16.30;63.10;;;;;;5095442;28;20099;-63
2023/03/24 09:40:03;;;;;;;7.63;2.00;;;16.30;63.00;;;;;;5091655;28;20123;-63
2023/03/24 09:42:40;;;;;;;7.47;2.22;;;16.30;63.00;;;;;;5092457;28;20020;-63
2023/03/24 09:45:16;;;;;;;9.20;2.00;;;16.30;63.00;;;;;;5093637;28;20028;-63
2023/03/24 09:47:51;;;;;;;5.50;1.90;;;16.50;62.80;;;;;;5104636;28;20095;-62
2023/03/24 09:50:26;;;;;;;6.20;2.10;;;16.70;62.30;;;;;;5094723;28;20100;-63
2023/03/24 09:52:57;;;;;;;9.82;2.20;;;16.90;61.80;;;;;;5096234;28;20024;-63
2023/03/24 09:55:27;;;;;;;7.63;1.90;;;17.10;61.50;;;;;;5096314;28;20111;-63
2023/03/24 09:58:00;;;;;;;8.45;1.90;;;17.30;60.90;;;;;;5094475;28;20599;-62
2023/03/24 10:00:29;;;;;;;7.60;1.88;;;17.50;60.60;;;;;;5112271;28;20345;-63
2023/03/24 10:03:09;;;;;;;10.13;2.13;;;17.60;60.20;;;;;;5094863;28;20024;-63
2023/03/24 10:05:42;;;;;;;9.13;1.75;;;17.50;60.20;;;;;;5094530;28;20042;-63
2023/03/24 10:08:30;;;;;;;8.73;2.05;;;17.30;60.60;;;;;;5094094;28;20121;-63
2023/03/24 10:11:01;;;;;;;8.77;1.73;;;17.10;60.90;;;;;;5083965;28;20024;-64
2023/03/24 10:13:46;;;;;;;8.77;3.00;;;17.00;60.80;;;;;;5096160;28;20028;-64
2023/03/24 10:16:22;;;;;;;7.53;2.03;;;16.70;61.00;;;;;;5095958;28;20046;-63
2023/03/24 10:19:09;;;;;;;7.03;2.00;;;16.40;61.40;;;;;;5091567;28;20025;-63
2023/03/24 10:21:38;;;;;;;7.47;2.17;;;16.20;61.90;;;;;;5093786;28;20149;-64
2023/03/24 10:24:23;;;;;;;6.90;1.80;;;16.10;62.40;;;;;;5096051;28;20077;-61
2023/03/24 10:27:01;;;;;;;7.10;1.75;;;15.90;62.60;;;;;;5095711;28;20036;-63
2023/03/24 10:29:30;;;;;;;7.80;2.47;;;15.90;62.90;;;;;;5089944;28;20051;-62
2023/03/24 10:32:09;;;;;;;9.88;2.30;;;16.10;62.70;;;;;;5095618;28;20023;-62
2023/03/24 10:34:37;;;;;;;10.52;2.30;;;16.20;62.50;;;;;;5095096;28;20039;-63
2023/03/24 10:37:03;;;;;;;7.53;1.90;;;16.40;61.90;;;;;;5095434;28;20089;-62
2023/03/24 10:39:31;;;;;;;7.93;2.17;;;16.40;61.50;;;;;;5090397;28;20074;-63
2023/03/24 10:41:59;;;;;;;5.88;2.17;;;16.50;61.40;;;;;;5095253;28;20453;-62
2023/03/24 10:44:26;;;;;;;5.13;1.55;;;16.70;60.90;;;;;;5094079;28;20024;-62
2023/03/24 10:47:01;;;;;;;9.77;1.73;;;17.00;60.10;;;;;;5095390;28;20062;-62
2023/03/24 10:49:27;;;;;;;9.63;2.15;;;17.10;59.40;;;;;;5088942;28;20385;-63
2023/03/24 10:52:00;;;;;;;5.85;1.52;;;17.30;59.20;;;;;;5095377;28;20020;-62
2023/03/24 10:54:28;;;;;;;8.73;2.10;;;17.50;58.70;;;;;;5094236;28;20028;-62
2023/03/24 10:56:57;;;;;;;6.65;1.90;;;17.50;58.50;;;;;;5095235;28;20028;-63
2023/03/24 10:59:26;;;;;;;6.80;1.80;;;17.50;58.30;;;;;;5092866;28;20028;-63
2023/03/24 11:01:59;;;;;;;8.85;2.08;;;17.30;58.40;;;;;;5094467;28;20118;-62
2023/03/24 11:04:26;;;;;;;8.07;2.08;;;17.10;58.50;;;;;;5093773;28;20127;-62
2023/03/24 11:07:33;;;;;;;7.28;2.10;;;16.90;58.90;;;;;;5095023;28;20020;-62
2023/03/24 11:10:20;;;;;;;5.03;1.63;;;16.70;59.00;;;;;;5078681;28;20354;-62
2023/03/24 11:12:57;;;;;;;9.52;1.85;;;16.60;59.40;;;;;;5085654;28;20103;-65
2023/03/24 11:15:29;;;;;;;8.07;1.60;;;16.60;59.40;;;;;;5093289;28;20067;-63
2023/03/24 11:18:00;;;;;;;8.70;1.92;;;16.60;59.60;;;;;;5092492;28;20020;-63
2023/03/24 11:20:32;;;;;;;5.50;2.03;;;16.60;59.70;;;;;;5094577;28;20036;-63
2023/03/24 11:23:16;;;;;;;6.85;1.83;;;16.50;59.90;;;;;;5082590;28;20111;-63
2023/03/24 11:25:46;;;;;;;5.47;1.63;;;16.40;60.10;;;;;;5065086;28;20115;-63
2023/03/24 11:28:20;;;;;;;8.70;2.13;;;16.30;60.50;;;;;;5086824;28;20387;-63
2023/03/24 11:30:51;;;;;;;6.00;1.92;;;16.20;60.90;;;;;;5084556;28;20081;-62
2023/03/24 11:33:27;;;;;;;5.22;1.75;;;16.20;61.60;;;;;;5090818;28;20020;-63
2023/03/24 11:35:53;;;;;;;8.68;1.85;;;16.10;62.10;;;;;;5097853;28;20020;-63
2023/03/24 11:38:29;;;;;;;7.35;1.83;;;16.00;62.50;;;;;;5093039;28;20544;-63
2023/03/24 11:40:58;;;;;;;4.63;1.40;;;16.00;62.90;;;;;;5103886;28;20042;-62
2023/03/24 11:43:26;;;;;;;3.97;1.65;;;16.00;63.00;;;;;;5093896;28;20040;-62
2023/03/24 11:46:16;;;;;;;4.32;1.30;;;16.10;62.80;;;;;;5102328;28;20024;-63
2023/03/24 11:48:54;;;;;;;4.25;1.35;;;16.30;62.40;;;;;;5091143;28;20085;-62
2023/03/24 11:51:34;;;;;;;5.75;1.60;;;16.30;62.10;;;;;;5090434;28;20020;-63
2023/03/24 11:54:03;;;;;;;4.78;1.27;;;16.40;61.80;;;;;;5088144;28;20024;-63
2023/03/24 11:56:32;;;;;;;6.15;1.27;;;16.70;61.50;;;;;;5092879;28;20071;-62
2023/03/24 11:59:07;;;;;;;4.50;1.42;;;16.90;61.20;;;;;;5094035;28;20093;-62
2023/03/24 12:01:42;;;;;;;6.40;1.55;;;17.00;60.70;;;;;;5081399;28;20044;-62
2023/03/24 12:04:45;;;;;;;5.90;1.48;;;16.90;60.60;;;;;;5082255;28;20032;-62
2023/03/24 12:07:35;;;;;;;6.80;1.65;;;16.80;60.80;;;;;;5089069;28;20080;-62
2023/03/24 12:10:07;;;;;;;5.82;1.80;;;16.60;61.20;;;;;;5091060;28;20028;-62
2023/03/24 12:12:41;;;;;;;5.97;2.00;;;16.40;61.90;;;;;;5098166;28;20467;-62
2023/03/24 12:15:50;;;;;;;7.22;1.88;;;16.10;62.80;;;;;;5094802;28;20035;-62
2023/03/24 12:18:27;;;;;;;6.32;2.20;;;15.80;64.00;;;;;;5070372;28;20036;-62
2023/03/24 12:21:04;;;;;;;7.78;2.40;;;15.50;65.00;;;;;;5078831;28;20349;-63
2023/03/24 12:23:55;;;;;;;7.72;2.30;;;15.40;65.90;;;;;;5088886;28;20429;-62
2023/03/24 12:26:31;;;;;;;6.78;1.80;;;15.10;66.70;;;;;;5090537;28;20039;-62
2023/03/24 12:29:43;;;;;;;6.05;1.50;;;15.00;67.60;;;;;;5087932;28;20048;-62
2023/03/24 12:32:32;;;;;;;5.43;1.52;;;14.80;68.00;;;;;;5089670;28;20088;-63
2023/03/24 12:35:01;;;;;;;5.47;1.65;;;14.80;68.20;;;;;;5096006;28;20115;-63
2023/03/24 12:37:33;;;;;;;4.35;1.45;;;14.80;68.10;;;;;;5096876;28;20115;-62
2023/03/24 12:40:36;;;;;;;3.95;1.20;;;14.70;68.10;;;;;;5095632;28;20039;-63
2023/03/24 12:43:36;;;;;;;3.95;1.02;;;14.70;68.40;;;;;;5096879;28;20448;-63
2023/03/24 12:46:39;;;;;;;2.38;1.00;;;14.60;68.50;;;;;;5100519;28;20116;-63
2023/03/24 12:49:20;;;;;;;5.10;1.40;;;14.50;68.50;;;;;;5097632;27;20029;-62
2023/03/24 12:52:01;;;;;;;4.28;1.30;;;14.40;68.70;;;;;;5096011;28;20040;-63
2023/03/24 12:54:44;;;;;;;6.40;1.38;;;14.40;68.90;;;;;;5073916;28;20032;-63
2023/03/24 12:57:17;;;;;;;3.78;1.33;;;14.50;68.90;;;;;;5091306;28;20107;-62
2023/03/24 12:59:51;;;;;;;2.95;1.10;;;14.60;68.90;;;;;;5099932;28;20027;-62
2023/03/24 13:02:30;;;;;;;6.30;1.50;;;14.70;68.80;;;;;;5095455;28;20390;-63
2023/03/24 13:05:04;;;;;;;7.25;1.30;;;14.90;68.60;;;;;;5099564;28;20436;-63
2023/03/24 13:07:36;;;;;;;5.72;1.90;;;15.00;68.50;;;;;;5094331;28;20425;-62
2023/03/24 13:10:21;;;;;;;7.75;1.60;;;15.10;68.60;;;;;;5102883;28;20028;-62
2023/03/24 13:13:05;;;;;;;6.80;2.05;;;15.20;68.60;;;;;;5098394;28;20089;-63
2023/03/24 13:15:37;;;;;;;4.45;1.70;;;15.30;68.40;;;;;;5110943;28;20019;-63
2023/03/24 13:18:09;;;;;;;5.05;1.83;;;15.40;68.40;;;;;;5102469;28;20388;-62
2023/03/24 13:20:42;;;;;;;6.57;1.83;;;15.50;68.50;;;;;;5107108;28;20046;-63